createdAt,value
2022-08-23T00:00:32.026Z,1013.73
2022-08-23T00:01:32.024Z,1013.74
2022-08-23T00:02:32.058Z,1013.76
2022-08-23T00:03:32.033Z,1013.71
2022-08-23T00:04:35.256Z,1013.73
2022-08-23T00:05:32.020Z,1013.71
2022-08-23T00:06:32.011Z,1013.75
2022-08-23T00:07:36.362Z,1013.75
2022-08-23T00:08:32.007Z,1013.76
2022-08-23T00:09:32.005Z,1013.76
2022-08-23T00:10:32.012Z,1013.76
2022-08-23T00:11:32.006Z,1013.77
2022-08-23T00:12:31.999Z,1013.72
2022-08-23T00:13:47.479Z,1013.70
2022-08-23T00:14:31.991Z,1013.67
2022-08-23T00:15:31.989Z,1013.69
2022-08-23T00:16:31.987Z,1013.69
2022-08-23T00:17:34.345Z,1013.69
2022-08-23T00:18:31.979Z,1013.69
2022-08-23T00:19:31.976Z,1013.72
2022-08-23T00:20:31.973Z,1013.72
2022-08-23T00:21:31.967Z,1013.69
2022-08-23T00:22:31.965Z,1013.70
2022-08-23T00:23:31.965Z,1013.70
2022-08-23T00:24:31.964Z,1013.67
2022-08-23T00:25:31.962Z,1013.66
2022-08-23T00:26:31.962Z,1013.62
2022-08-23T00:27:31.957Z,1013.61
2022-08-23T00:28:31.951Z,1013.60
2022-08-23T00:29:31.986Z,1013.64
2022-08-23T00:30:31.949Z,1013.60
2022-08-23T00:31:31.994Z,1013.64
2022-08-23T00:32:31.944Z,1013.67
2022-08-23T00:33:31.938Z,1013.60
2022-08-23T00:34:31.938Z,1013.61
2022-08-23T00:35:31.934Z,1013.65
2022-08-23T00:36:31.934Z,1013.62
2022-08-23T00:37:31.933Z,1013.61
2022-08-23T00:38:34.965Z,1013.62
2022-08-23T00:39:31.947Z,1013.62
2022-08-23T00:40:31.921Z,1013.65
2022-08-23T00:41:31.919Z,1013.63
2022-08-23T00:42:31.911Z,1013.64
2022-08-23T00:43:31.921Z,1013.63
2022-08-23T00:44:31.910Z,1013.63
2022-08-23T00:45:31.911Z,1013.64
2022-08-23T00:46:31.903Z,1013.62
2022-08-23T00:47:31.899Z,1013.63
2022-08-23T00:48:31.899Z,1013.65
2022-08-23T00:49:31.896Z,1013.61
2022-08-23T00:50:31.939Z,1013.59
2022-08-23T00:51:31.890Z,1013.58
2022-08-23T00:52:31.894Z,1013.57
2022-08-23T00:53:31.885Z,1013.55
2022-08-23T00:54:31.881Z,1013.53
2022-08-23T00:55:31.882Z,1013.50
2022-08-23T00:56:31.875Z,1013.50
2022-08-23T00:57:31.875Z,1013.49
2022-08-23T00:58:31.885Z,1013.50
2022-08-23T00:59:31.888Z,1013.49
2022-08-23T01:00:31.892Z,1013.47
2022-08-23T01:01:31.978Z,1013.47
2022-08-23T01:02:31.915Z,1013.49
2022-08-23T01:03:38.634Z,1013.51
2022-08-23T01:04:31.852Z,1013.53
2022-08-23T01:05:31.852Z,1013.49
2022-08-23T01:06:31.847Z,1013.49
2022-08-23T01:07:31.846Z,1013.53
2022-08-23T01:08:31.848Z,1013.52
2022-08-23T01:09:31.842Z,1013.51
2022-08-23T01:10:31.852Z,1013.52
2022-08-23T01:11:31.846Z,1013.54
2022-08-23T01:12:32.825Z,1013.50
2022-08-23T01:13:31.882Z,1013.50
2022-08-23T01:14:31.845Z,1013.51
2022-08-23T01:15:31.853Z,1013.54
2022-08-23T01:16:31.845Z,1013.53
2022-08-23T01:17:31.850Z,1013.53
2022-08-23T01:18:31.849Z,1013.50
2022-08-23T01:19:32.004Z,1013.49
2022-08-23T01:20:31.849Z,1013.49
2022-08-23T01:21:31.810Z,1013.45
2022-08-23T01:22:31.804Z,1013.46
2022-08-23T01:23:31.803Z,1013.49
2022-08-23T01:24:43.977Z,1013.46
2022-08-23T01:25:31.793Z,1013.45
2022-08-23T01:26:31.792Z,1013.46
2022-08-23T01:27:32.162Z,1013.47
2022-08-23T01:28:31.787Z,1013.48
2022-08-23T01:29:31.787Z,1013.49
2022-08-23T01:30:31.782Z,1013.47
2022-08-23T01:31:31.779Z,1013.47
2022-08-23T01:32:31.777Z,1013.44
2022-08-23T01:33:31.774Z,1013.51
2022-08-23T01:34:34.635Z,1013.46
2022-08-23T01:35:31.773Z,1013.47
2022-08-23T01:36:31.768Z,1013.49
2022-08-23T01:37:31.761Z,1013.48
2022-08-23T01:38:32.869Z,1013.49
2022-08-23T01:39:31.756Z,1013.49
2022-08-23T01:40:31.756Z,1013.46
2022-08-23T01:41:31.749Z,1013.48
2022-08-23T01:42:31.777Z,1013.49
2022-08-23T01:43:31.747Z,1013.50
2022-08-23T01:44:31.741Z,1013.51
2022-08-23T01:45:31.741Z,1013.51
2022-08-23T01:46:31.736Z,1013.55
2022-08-23T01:47:31.734Z,1013.52
2022-08-23T01:48:31.731Z,1013.54
2022-08-23T01:49:31.729Z,1013.48
2022-08-23T01:50:31.791Z,1013.52
2022-08-23T01:51:31.727Z,1013.46
2022-08-23T01:52:31.719Z,1013.46
2022-08-23T01:53:31.717Z,1013.46
2022-08-23T01:54:31.713Z,1013.47
2022-08-23T01:55:31.735Z,1013.48
2022-08-23T01:56:38.723Z,1013.47
2022-08-23T01:57:31.705Z,1013.48
2022-08-23T01:58:31.702Z,1013.46
2022-08-23T01:59:31.699Z,1013.52
2022-08-23T02:00:31.699Z,1013.49
2022-08-23T02:01:31.744Z,1013.44
2022-08-23T02:02:31.701Z,1013.47
2022-08-23T02:03:31.688Z,1013.47
2022-08-23T02:04:31.688Z,1013.49
2022-08-23T02:05:31.685Z,1013.51
2022-08-23T02:06:31.679Z,1013.47
2022-08-23T02:07:31.677Z,1013.46
2022-08-23T02:08:31.678Z,1013.46
2022-08-23T02:09:31.669Z,1013.48
2022-08-23T02:10:31.670Z,1013.47
2022-08-23T02:11:31.665Z,1013.51
2022-08-23T02:12:31.664Z,1013.46
2022-08-23T02:13:31.657Z,1013.47
2022-08-23T02:14:31.655Z,1013.47
2022-08-23T02:15:31.654Z,1013.46
2022-08-23T02:16:31.654Z,1013.45
2022-08-23T02:17:31.648Z,1013.41
2022-08-23T02:18:31.645Z,1013.45
2022-08-23T02:19:31.644Z,1013.40
2022-08-23T02:20:31.640Z,1013.37
2022-08-23T02:21:31.638Z,1013.37
2022-08-23T02:22:31.636Z,1013.38
2022-08-23T02:23:31.631Z,1013.34
2022-08-23T02:24:31.853Z,1013.37
2022-08-23T02:25:31.625Z,1013.34
2022-08-23T02:26:31.623Z,1013.34
2022-08-23T02:27:31.620Z,1013.36
2022-08-23T02:28:31.615Z,1013.32
2022-08-23T02:29:31.613Z,1013.32
2022-08-23T02:30:31.611Z,1013.34
2022-08-23T02:31:31.607Z,1013.34
2022-08-23T02:32:31.603Z,1013.32
2022-08-23T02:35:05.658Z,1013.30
2022-08-23T02:36:03.243Z,1013.29
2022-08-23T02:38:07.232Z,1013.28
2022-08-23T02:39:07.217Z,1013.28
2022-08-23T02:41:11.206Z,1013.27
2022-08-23T02:42:11.754Z,1013.25
2022-08-23T02:44:15.672Z,1013.25
2022-08-23T02:45:15.661Z,1013.25
2022-08-23T02:46:15.659Z,1013.26
2022-08-23T02:47:22.829Z,1013.26
2022-08-23T02:49:20.336Z,1013.24
2022-08-23T02:50:20.106Z,1013.29
2022-08-23T02:52:23.906Z,1013.31
2022-08-23T02:53:23.887Z,1013.31
2022-08-23T02:55:28.388Z,1013.40
2022-08-23T02:56:28.375Z,1013.42
2022-08-23T02:57:28.367Z,1013.45
2022-08-23T02:58:28.374Z,1013.45
2022-08-23T02:59:28.365Z,1013.46
2022-08-23T03:00:28.374Z,1013.46
2022-08-23T03:01:28.372Z,1013.43
2022-08-23T03:02:28.390Z,1013.47
2022-08-23T03:03:28.352Z,1013.45
2022-08-23T03:04:28.349Z,1013.45
2022-08-23T03:05:28.346Z,1013.44
2022-08-23T03:06:28.346Z,1013.46
2022-08-23T03:07:28.341Z,1013.50
2022-08-23T03:08:28.336Z,1013.52
2022-08-23T03:09:28.351Z,1013.54
2022-08-23T03:10:28.347Z,1013.52
2022-08-23T03:11:28.366Z,1013.53
2022-08-23T03:12:28.352Z,1013.50
2022-08-23T03:13:28.322Z,1013.52
2022-08-23T03:14:28.319Z,1013.55
2022-08-23T03:15:28.321Z,1013.54
2022-08-23T03:16:28.312Z,1013.53
2022-08-23T03:17:28.308Z,1013.51
2022-08-23T03:18:28.307Z,1013.53
2022-08-23T03:19:28.303Z,1013.55
2022-08-23T03:20:28.344Z,1013.57
2022-08-23T03:21:28.327Z,1013.60
2022-08-23T03:22:28.313Z,1013.60
2022-08-23T03:23:28.293Z,1013.64
2022-08-23T03:24:28.294Z,1013.64
2022-08-23T03:25:28.284Z,1013.67
2022-08-23T03:26:28.282Z,1013.72
2022-08-23T03:27:28.277Z,1013.71
2022-08-23T03:28:28.275Z,1013.68
2022-08-23T03:29:28.274Z,1013.70
2022-08-23T03:30:28.266Z,1013.72
2022-08-23T03:31:29.287Z,1013.71
2022-08-23T03:32:28.264Z,1013.69
2022-08-23T03:33:28.257Z,1013.70
2022-08-23T03:34:28.252Z,1013.70
2022-08-23T03:35:28.252Z,1013.72
2022-08-23T03:36:28.489Z,1013.72
2022-08-23T03:37:28.244Z,1013.73
2022-08-23T03:38:28.243Z,1013.71
2022-08-23T03:39:28.241Z,1013.72
2022-08-23T03:40:28.234Z,1013.73
2022-08-23T03:41:28.234Z,1013.72
2022-08-23T03:42:28.572Z,1013.72
2022-08-23T03:43:28.226Z,1013.73
2022-08-23T03:44:28.224Z,1013.71
2022-08-23T03:45:28.221Z,1013.76
2022-08-23T03:46:30.969Z,1013.79
2022-08-23T03:47:28.216Z,1013.75
2022-08-23T03:48:28.212Z,1013.76
2022-08-23T03:49:28.209Z,1013.79
2022-08-23T03:50:28.221Z,1013.78
2022-08-23T03:51:28.201Z,1013.80
2022-08-23T03:52:28.198Z,1013.79
2022-08-23T03:53:28.197Z,1013.82
2022-08-23T03:54:28.194Z,1013.81
2022-08-23T03:55:28.193Z,1013.84
2022-08-23T03:56:28.189Z,1013.85
2022-08-23T03:57:28.193Z,1013.88
2022-08-23T03:58:28.181Z,1013.86
2022-08-23T03:59:28.177Z,1013.88
2022-08-23T04:00:28.174Z,1013.86
2022-08-23T04:01:28.936Z,1013.87
2022-08-23T04:02:28.169Z,1013.86
2022-08-23T04:03:28.167Z,1013.86
2022-08-23T04:04:28.164Z,1013.83
2022-08-23T04:05:28.159Z,1013.82
2022-08-23T04:06:28.156Z,1013.84
2022-08-23T04:07:28.152Z,1013.80
2022-08-23T04:08:33.339Z,1013.81
2022-08-23T04:09:28.148Z,1013.81
2022-08-23T04:10:28.144Z,1013.79
2022-08-23T04:11:28.141Z,1013.79
2022-08-23T04:12:28.142Z,1013.76
2022-08-23T04:13:28.136Z,1013.80
2022-08-23T04:14:28.133Z,1013.79
2022-08-23T04:15:28.129Z,1013.79
2022-08-23T04:16:28.126Z,1013.79
2022-08-23T04:17:32.078Z,1013.78
2022-08-23T04:18:28.121Z,1013.83
2022-08-23T04:19:28.114Z,1013.80
2022-08-23T04:20:28.114Z,1013.81
2022-08-23T04:21:28.111Z,1013.81
2022-08-23T04:22:28.106Z,1013.79
2022-08-23T04:23:28.104Z,1013.83
2022-08-23T04:24:28.099Z,1013.85
2022-08-23T04:25:34.654Z,1013.85
2022-08-23T04:26:30.283Z,1013.86
2022-08-23T04:27:28.090Z,1013.85
2022-08-23T04:28:28.090Z,1013.81
2022-08-23T04:29:33.954Z,1013.86
2022-08-23T04:30:28.079Z,1013.80
2022-08-23T04:31:28.078Z,1013.78
2022-08-23T04:32:28.420Z,1013.81
2022-08-23T04:33:28.074Z,1013.78
2022-08-23T04:34:28.705Z,1013.75
2022-08-23T04:35:28.068Z,1013.80
2022-08-23T04:36:28.062Z,1013.82
2022-08-23T04:37:28.066Z,1013.83
2022-08-23T04:38:28.058Z,1013.80
2022-08-23T04:39:28.056Z,1013.81
2022-08-23T04:40:28.073Z,1013.84
2022-08-23T04:41:28.046Z,1013.83
2022-08-23T04:42:28.043Z,1013.85
2022-08-23T04:43:28.042Z,1013.87
2022-08-23T04:44:28.038Z,1013.87
2022-08-23T04:45:28.036Z,1013.89
2022-08-23T04:46:28.038Z,1013.90
2022-08-23T04:47:28.032Z,1013.88
2022-08-23T04:48:28.025Z,1013.93
2022-08-23T04:49:28.020Z,1013.93
2022-08-23T04:50:28.021Z,1013.92
2022-08-23T04:51:28.015Z,1013.98
2022-08-23T04:52:28.013Z,1013.95
2022-08-23T04:53:28.010Z,1013.98
2022-08-23T04:54:28.007Z,1014.00
2022-08-23T04:55:28.005Z,1014.00
2022-08-23T04:56:28.000Z,1014.02
2022-08-23T04:57:27.997Z,1013.99
2022-08-23T04:58:27.996Z,1013.99
2022-08-23T04:59:27.991Z,1014.00
2022-08-23T05:00:28.224Z,1014.01
2022-08-23T05:01:28.047Z,1014.03
2022-08-23T05:02:27.982Z,1014.01
2022-08-23T05:03:27.983Z,1013.99
2022-08-23T05:04:27.986Z,1014.01
2022-08-23T05:05:27.980Z,1014.02
2022-08-23T05:06:27.971Z,1014.04
2022-08-23T05:07:33.802Z,1014.03
2022-08-23T05:08:27.965Z,1014.03
2022-08-23T05:09:27.965Z,1014.05
2022-08-23T05:10:27.955Z,1014.07
2022-08-23T05:11:27.954Z,1014.06
2022-08-23T05:12:27.951Z,1014.10
2022-08-23T05:13:27.952Z,1014.07
2022-08-23T05:14:27.947Z,1014.14
2022-08-23T05:15:27.948Z,1014.11
2022-08-23T05:16:27.940Z,1014.16
2022-08-23T05:17:27.935Z,1014.17
2022-08-23T05:18:27.934Z,1014.21
2022-08-23T05:19:27.935Z,1014.18
2022-08-23T05:20:27.929Z,1014.23
2022-08-23T05:21:27.926Z,1014.20
2022-08-23T05:22:27.919Z,1014.22
2022-08-23T05:23:31.811Z,1014.21
2022-08-23T05:24:27.919Z,1014.18
2022-08-23T05:25:27.911Z,1014.19
2022-08-23T05:26:27.911Z,1014.20
2022-08-23T05:27:27.910Z,1014.20
2022-08-23T05:28:27.902Z,1014.19
2022-08-23T05:29:27.904Z,1014.19
2022-08-23T05:30:27.898Z,1014.19
2022-08-23T05:31:27.895Z,1014.22
2022-08-23T05:32:32.819Z,1014.23
2022-08-23T05:33:27.889Z,1014.26
2022-08-23T05:34:27.885Z,1014.25
2022-08-23T05:35:27.881Z,1014.29
2022-08-23T05:36:27.881Z,1014.28
2022-08-23T05:37:27.878Z,1014.27
2022-08-23T05:38:27.872Z,1014.29
2022-08-23T05:39:36.111Z,1014.30
2022-08-23T05:40:27.866Z,1014.32
2022-08-23T05:41:37.834Z,1014.30
2022-08-23T05:42:27.861Z,1014.31
2022-08-23T05:43:27.860Z,1014.29
2022-08-23T05:44:27.856Z,1014.32
2022-08-23T05:45:27.854Z,1014.32
2022-08-23T05:46:28.352Z,1014.31
2022-08-23T05:47:27.847Z,1014.29
2022-08-23T05:48:27.845Z,1014.31
2022-08-23T05:49:27.842Z,1014.35
2022-08-23T05:50:27.838Z,1014.33
2022-08-23T05:51:27.835Z,1014.28
2022-08-23T05:52:27.835Z,1014.31
2022-08-23T05:53:27.831Z,1014.32
2022-08-23T05:54:27.827Z,1014.31
2022-08-23T05:55:35.054Z,1014.36
2022-08-23T05:56:27.819Z,1014.31
2022-08-23T05:57:27.821Z,1014.32
2022-08-23T05:58:27.814Z,1014.34
2022-08-23T05:59:27.813Z,1014.33
2022-08-23T06:00:38.126Z,1014.33
2022-08-23T06:01:27.853Z,1014.35
2022-08-23T06:02:27.803Z,1014.40
2022-08-23T06:03:27.802Z,1014.36
2022-08-23T06:04:27.801Z,1014.37
2022-08-23T06:05:27.795Z,1014.34
2022-08-23T06:06:37.121Z,1014.34
2022-08-23T06:07:27.792Z,1014.37
2022-08-23T06:08:27.788Z,1014.39
2022-08-23T06:09:27.783Z,1014.39
2022-08-23T06:10:27.819Z,1014.41
2022-08-23T06:11:27.783Z,1014.39
2022-08-23T06:12:27.774Z,1014.41
2022-08-23T06:13:27.776Z,1014.44
2022-08-23T06:14:27.829Z,1014.40
2022-08-23T06:15:27.768Z,1014.43
2022-08-23T06:16:27.769Z,1014.42
2022-08-23T06:17:27.766Z,1014.44
2022-08-23T06:18:27.762Z,1014.42
2022-08-23T06:19:27.760Z,1014.43
2022-08-23T06:20:27.846Z,1014.45
2022-08-23T06:21:27.756Z,1014.40
2022-08-23T06:22:27.754Z,1014.43
2022-08-23T06:23:27.752Z,1014.43
2022-08-23T06:24:27.752Z,1014.43
2022-08-23T06:25:27.748Z,1014.41
2022-08-23T06:26:27.746Z,1014.42
2022-08-23T06:27:27.743Z,1014.45
2022-08-23T06:28:27.770Z,1014.44
2022-08-23T06:29:27.782Z,1014.45
2022-08-23T06:30:27.889Z,1014.46
2022-08-23T06:31:27.759Z,1014.41
2022-08-23T06:32:27.787Z,1014.48
2022-08-23T06:33:27.775Z,1014.49
2022-08-23T06:34:27.730Z,1014.49
2022-08-23T06:35:37.954Z,1014.50
2022-08-23T06:36:27.725Z,1014.49
2022-08-23T06:37:27.722Z,1014.48
2022-08-23T06:38:27.718Z,1014.45
2022-08-23T06:39:27.717Z,1014.49
2022-08-23T06:40:27.746Z,1014.48
2022-08-23T06:41:27.712Z,1014.45
2022-08-23T06:42:38.410Z,1014.47
2022-08-23T06:43:27.727Z,1014.46
2022-08-23T06:44:27.707Z,1014.46
2022-08-23T06:45:33.725Z,1014.46
2022-08-23T06:46:28.269Z,1014.43
2022-08-23T06:47:27.700Z,1014.46
2022-08-23T06:48:27.704Z,1014.47
2022-08-23T06:49:27.708Z,1014.46
2022-08-23T06:50:32.082Z,1014.45
2022-08-23T06:51:27.693Z,1014.47
2022-08-23T06:52:27.762Z,1014.45
2022-08-23T06:53:27.691Z,1014.47
2022-08-23T06:54:27.689Z,1014.46
2022-08-23T06:55:27.685Z,1014.48
2022-08-23T06:56:27.681Z,1014.52
2022-08-23T06:57:27.680Z,1014.52
2022-08-23T06:58:27.678Z,1014.52
2022-08-23T06:59:27.684Z,1014.53
2022-08-23T07:00:27.789Z,1014.55
2022-08-23T07:01:45.334Z,1014.58
2022-08-23T07:02:27.704Z,1014.56
2022-08-23T07:03:27.670Z,1014.62
2022-08-23T07:04:27.666Z,1014.61
2022-08-23T07:05:27.670Z,1014.62
2022-08-23T07:06:27.663Z,1014.59
2022-08-23T07:07:37.532Z,1014.60
2022-08-23T07:08:27.659Z,1014.61
2022-08-23T07:09:27.661Z,1014.65
2022-08-23T07:10:27.653Z,1014.64
2022-08-23T07:11:27.653Z,1014.63
2022-08-23T07:12:27.654Z,1014.58
2022-08-23T07:13:27.652Z,1014.60
2022-08-23T07:14:27.648Z,1014.62
2022-08-23T07:15:27.646Z,1014.62
2022-08-23T07:16:27.736Z,1014.60
2022-08-23T07:17:27.647Z,1014.61
2022-08-23T07:18:27.639Z,1014.61
2022-08-23T07:19:29.047Z,1014.59
2022-08-23T07:20:27.637Z,1014.61
2022-08-23T07:21:27.636Z,1014.61
2022-08-23T07:22:27.635Z,1014.58
2022-08-23T07:23:27.632Z,1014.58
2022-08-23T07:24:32.342Z,1014.60
2022-08-23T07:25:27.632Z,1014.63
2022-08-23T07:26:27.627Z,1014.59
2022-08-23T07:27:27.626Z,1014.61
2022-08-23T07:28:27.625Z,1014.59
2022-08-23T07:29:27.629Z,1014.62
2022-08-23T07:30:27.631Z,1014.64
2022-08-23T07:31:27.647Z,1014.64
2022-08-23T07:32:27.620Z,1014.60
2022-08-23T07:33:27.620Z,1014.63
2022-08-23T07:34:27.612Z,1014.54
2022-08-23T07:35:27.605Z,1014.65
2022-08-23T07:36:27.982Z,1014.65
2022-08-23T07:37:27.607Z,1014.63
2022-08-23T07:38:28.966Z,1014.68
2022-08-23T07:39:27.601Z,1014.70
2022-08-23T07:40:27.821Z,1014.71
2022-08-23T07:41:27.601Z,1014.65
2022-08-23T07:42:27.600Z,1014.59
2022-08-23T07:43:27.600Z,1014.71
2022-08-23T07:44:27.605Z,1014.68
2022-08-23T07:45:27.593Z,1014.72
2022-08-23T07:46:27.606Z,1014.69
2022-08-23T07:47:27.591Z,1014.72
2022-08-23T07:48:52.576Z,1014.68
2022-08-23T07:49:29.356Z,1014.69
2022-08-23T07:50:30.374Z,1014.66
2022-08-23T07:51:27.586Z,1014.64
2022-08-23T07:52:27.590Z,1014.63
2022-08-23T07:53:37.818Z,1014.65
2022-08-23T07:54:27.581Z,1014.66
2022-08-23T07:55:27.578Z,1014.64
2022-08-23T07:56:27.578Z,1014.68
2022-08-23T07:57:27.578Z,1014.66
2022-08-23T07:58:27.574Z,1014.66
2022-08-23T07:59:30.419Z,1014.68
2022-08-23T08:00:27.575Z,1014.65
2022-08-23T08:01:27.601Z,1014.70
2022-08-23T08:02:27.609Z,1014.72
2022-08-23T08:03:27.569Z,1014.71
2022-08-23T08:04:27.568Z,1014.72
2022-08-23T08:05:27.570Z,1014.73
2022-08-23T08:06:27.567Z,1014.75
2022-08-23T08:07:27.598Z,1014.74
2022-08-23T08:08:27.566Z,1014.79
2022-08-23T08:09:27.564Z,1014.77
2022-08-23T08:10:27.560Z,1014.81
2022-08-23T08:11:32.161Z,1014.82
2022-08-23T08:12:27.562Z,1014.77
2022-08-23T08:13:27.563Z,1014.78
2022-08-23T08:14:27.559Z,1014.83
2022-08-23T08:15:27.558Z,1014.79
2022-08-23T08:16:27.575Z,1014.84
2022-08-23T08:17:27.825Z,1014.87
2022-08-23T08:18:27.555Z,1014.89
2022-08-23T08:19:27.555Z,1014.85
2022-08-23T08:20:27.559Z,1014.89
2022-08-23T08:21:27.555Z,1014.90
2022-08-23T08:22:27.553Z,1014.89
2022-08-23T08:23:27.552Z,1014.86
2022-08-23T08:24:27.558Z,1014.86
2022-08-23T08:25:27.553Z,1014.88
2022-08-23T08:26:27.554Z,1014.85
2022-08-23T08:27:27.550Z,1014.89
2022-08-23T08:28:27.550Z,1014.86
2022-08-23T08:29:27.553Z,1014.90
2022-08-23T08:30:27.551Z,1014.89
2022-08-23T08:31:27.681Z,1014.92
2022-08-23T08:32:27.549Z,1014.96
2022-08-23T08:33:30.796Z,1014.89
2022-08-23T08:34:27.544Z,1014.94
2022-08-23T08:35:27.542Z,1014.90
2022-08-23T08:36:27.550Z,1014.87
2022-08-23T08:37:27.571Z,1014.85
2022-08-23T08:38:28.875Z,1014.85
2022-08-23T08:39:27.547Z,1014.87
2022-08-23T08:40:27.549Z,1014.92
2022-08-23T08:41:27.546Z,1014.92
2022-08-23T08:42:27.542Z,1014.93
2022-08-23T08:43:27.550Z,1014.92
2022-08-23T08:44:27.543Z,1014.91
2022-08-23T08:45:27.542Z,1014.86
2022-08-23T08:46:27.567Z,1014.92
2022-08-23T08:47:27.775Z,1014.92
2022-08-23T08:48:27.539Z,1014.93
2022-08-23T08:49:27.544Z,1014.92
2022-08-23T08:50:27.543Z,1014.86
2022-08-23T08:51:27.538Z,1014.84
2022-08-23T08:52:29.735Z,1014.87
2022-08-23T08:53:27.541Z,1014.88
2022-08-23T08:54:27.540Z,1014.88
2022-08-23T08:55:27.538Z,1014.80
2022-08-23T08:56:29.787Z,1014.83
2022-08-23T08:57:27.921Z,1014.85
2022-08-23T08:58:27.535Z,1014.86
2022-08-23T08:59:27.536Z,1014.86
2022-08-23T09:00:27.538Z,1014.83
2022-08-23T09:01:27.563Z,1014.83
2022-08-23T09:02:32.593Z,1014.81
2022-08-23T09:03:27.578Z,1014.82
2022-08-23T09:04:27.536Z,1014.82
2022-08-23T09:05:27.540Z,1014.76
2022-08-23T09:06:27.539Z,1014.79
2022-08-23T09:07:31.068Z,1014.78
2022-08-23T09:08:27.590Z,1014.74
2022-08-23T09:09:27.536Z,1014.77
2022-08-23T09:10:27.540Z,1014.82
2022-08-23T09:11:27.535Z,1014.81
2022-08-23T09:12:27.536Z,1014.80
2022-08-23T09:13:27.535Z,1014.81
2022-08-23T09:14:27.534Z,1014.87
2022-08-23T09:15:27.536Z,1014.84
2022-08-23T09:16:28.784Z,1014.90
2022-08-23T09:17:27.538Z,1014.88
2022-08-23T09:18:27.534Z,1014.90
2022-08-23T09:19:27.533Z,1014.87
2022-08-23T09:20:31.046Z,1014.79
2022-08-23T09:21:28.433Z,1014.87
2022-08-23T09:22:27.532Z,1014.83
2022-08-23T09:23:27.532Z,1014.86
2022-08-23T09:24:27.532Z,1014.84
2022-08-23T09:25:27.534Z,1014.82
2022-08-23T09:26:27.542Z,1014.82
2022-08-23T09:27:27.532Z,1014.83
2022-08-23T09:28:27.533Z,1014.82
2022-08-23T09:29:27.534Z,1014.83
2022-08-23T09:30:27.531Z,1014.86
2022-08-23T09:31:27.608Z,1014.87
2022-08-23T09:32:27.531Z,1014.85
2022-08-23T09:33:27.531Z,1014.86
2022-08-23T09:34:27.530Z,1014.86
2022-08-23T09:35:27.532Z,1014.81
2022-08-23T09:36:27.531Z,1014.84
2022-08-23T09:37:27.532Z,1014.83
2022-08-23T09:38:27.526Z,1014.84
2022-08-23T09:39:30.882Z,1014.85
2022-08-23T09:40:27.531Z,1014.87
2022-08-23T09:41:27.542Z,1014.83
2022-08-23T09:42:27.530Z,1014.86
2022-08-23T09:43:27.528Z,1014.88
2022-08-23T09:44:27.532Z,1014.89
2022-08-23T09:45:28.889Z,1014.86
2022-08-23T09:46:27.597Z,1014.86
2022-08-23T09:47:27.529Z,1014.84
2022-08-23T09:48:31.094Z,1014.82
2022-08-23T09:49:27.528Z,1014.81
2022-08-23T09:50:27.526Z,1014.84
2022-08-23T09:51:27.523Z,1014.81
2022-08-23T09:52:27.525Z,1014.80
2022-08-23T09:53:27.529Z,1014.77
2022-08-23T09:54:27.526Z,1014.78
2022-08-23T09:55:27.526Z,1014.77
2022-08-23T09:56:27.523Z,1014.78
2022-08-23T09:57:27.824Z,1014.78
2022-08-23T09:58:27.527Z,1014.78
2022-08-23T09:59:27.629Z,1014.77
2022-08-23T10:00:27.536Z,1014.77
2022-08-23T10:01:27.571Z,1014.74
2022-08-23T10:02:27.585Z,1014.78
2022-08-23T10:03:27.536Z,1014.70
2022-08-23T10:04:27.721Z,1014.71
2022-08-23T10:05:27.541Z,1014.72
2022-08-23T10:06:27.524Z,1014.79
2022-08-23T10:07:27.529Z,1014.81
2022-08-23T10:08:27.528Z,1014.72
2022-08-23T10:09:27.527Z,1014.73
2022-08-23T10:10:27.520Z,1014.73
2022-08-23T10:11:27.524Z,1014.67
2022-08-23T10:12:27.524Z,1014.74
2022-08-23T10:13:27.525Z,1014.72
2022-08-23T10:14:30.063Z,1014.74
2022-08-23T10:15:27.525Z,1014.76
2022-08-23T10:16:27.556Z,1014.75
2022-08-23T10:17:27.524Z,1014.76
2022-08-23T10:18:27.539Z,1014.70
2022-08-23T10:19:27.524Z,1014.74
2022-08-23T10:20:27.537Z,1014.68
2022-08-23T10:21:27.521Z,1014.69
2022-08-23T10:22:27.522Z,1014.73
2022-08-23T10:23:27.525Z,1014.71
2022-08-23T10:24:27.527Z,1014.69
2022-08-23T10:25:27.525Z,1014.73
2022-08-23T10:26:27.526Z,1014.73
2022-08-23T10:27:27.527Z,1014.71
2022-08-23T10:28:27.526Z,1014.72
2022-08-23T10:29:27.524Z,1014.71
2022-08-23T10:30:27.524Z,1014.70
2022-08-23T10:31:27.561Z,1014.73
2022-08-23T10:32:27.526Z,1014.74
2022-08-23T10:33:27.528Z,1014.77
2022-08-23T10:34:29.910Z,1014.72
2022-08-23T10:35:27.525Z,1014.73
2022-08-23T10:36:27.526Z,1014.77
2022-08-23T10:37:27.526Z,1014.77
2022-08-23T10:38:27.526Z,1014.74
2022-08-23T10:39:27.527Z,1014.72
2022-08-23T10:40:27.565Z,1014.75
2022-08-23T10:41:27.527Z,1014.71
2022-08-23T10:42:27.528Z,1014.77
2022-08-23T10:43:27.527Z,1014.75
2022-08-23T10:44:27.543Z,1014.73
2022-08-23T10:45:27.527Z,1014.79
2022-08-23T10:46:27.560Z,1014.81
2022-08-23T10:47:27.551Z,1014.71
2022-08-23T10:48:27.530Z,1014.76
2022-08-23T10:49:27.533Z,1014.73
2022-08-23T10:50:27.531Z,1014.70
2022-08-23T10:51:32.037Z,1014.70
2022-08-23T10:52:27.533Z,1014.71
2022-08-23T10:53:27.532Z,1014.72
2022-08-23T10:54:27.533Z,1014.67
2022-08-23T10:55:27.531Z,1014.72
2022-08-23T10:56:27.534Z,1014.74
2022-08-23T10:57:27.531Z,1014.69
2022-08-23T10:58:27.537Z,1014.74
2022-08-23T10:59:27.536Z,1014.71
2022-08-23T11:00:27.533Z,1014.75
2022-08-23T11:01:27.582Z,1014.73
2022-08-23T11:02:27.572Z,1014.77
2022-08-23T11:03:29.021Z,1014.79
2022-08-23T11:04:27.536Z,1014.79
2022-08-23T11:05:27.537Z,1014.77
2022-08-23T11:06:27.537Z,1014.73
2022-08-23T11:07:27.536Z,1014.70
2022-08-23T11:08:27.541Z,1014.69
2022-08-23T11:09:27.538Z,1014.74
2022-08-23T11:10:27.538Z,1014.71
2022-08-23T11:11:27.539Z,1014.67
2022-08-23T11:12:27.541Z,1014.67
2022-08-23T11:13:27.542Z,1014.66
2022-08-23T11:14:27.540Z,1014.68
2022-08-23T11:15:27.587Z,1014.72
2022-08-23T11:16:27.543Z,1014.66
2022-08-23T11:17:27.545Z,1014.64
2022-08-23T11:18:31.302Z,1014.67
2022-08-23T11:19:27.544Z,1014.66
2022-08-23T11:20:27.547Z,1014.70
2022-08-23T11:21:27.545Z,1014.64
2022-08-23T11:22:27.543Z,1014.69
2022-08-23T11:23:27.546Z,1014.69
2022-08-23T11:24:27.548Z,1014.70
2022-08-23T11:25:27.547Z,1014.66
2022-08-23T11:26:27.549Z,1014.74
2022-08-23T11:27:27.548Z,1014.71
2022-08-23T11:28:30.420Z,1014.73
2022-08-23T11:29:27.548Z,1014.69
2022-08-23T11:30:27.553Z,1014.68
2022-08-23T11:31:27.567Z,1014.68
2022-08-23T11:32:29.965Z,1014.67
2022-08-23T11:33:27.553Z,1014.66
2022-08-23T11:34:29.478Z,1014.69
2022-08-23T11:35:27.550Z,1014.65
2022-08-23T11:36:27.555Z,1014.63
2022-08-23T11:37:27.554Z,1014.59
2022-08-23T11:38:27.556Z,1014.66
2022-08-23T11:39:27.552Z,1014.64
2022-08-23T11:40:28.514Z,1014.65
2022-08-23T11:41:27.556Z,1014.62
2022-08-23T11:42:27.556Z,1014.68
2022-08-23T11:43:27.557Z,1014.69
2022-08-23T11:44:27.561Z,1014.70
2022-08-23T11:45:27.559Z,1014.74
2022-08-23T11:46:27.618Z,1014.72
2022-08-23T11:47:27.558Z,1014.71
2022-08-23T11:48:27.561Z,1014.73
2022-08-23T11:49:27.559Z,1014.72
2022-08-23T11:50:27.602Z,1014.73
2022-08-23T11:51:27.559Z,1014.67
2022-08-23T11:52:27.563Z,1014.74
2022-08-23T11:53:27.565Z,1014.71
2022-08-23T11:54:27.588Z,1014.72
2022-08-23T11:55:27.566Z,1014.76
2022-08-23T11:56:27.570Z,1014.73
2022-08-23T11:57:28.188Z,1014.78
2022-08-23T11:58:27.567Z,1014.73
2022-08-23T11:59:27.569Z,1014.67
2022-08-23T12:00:28.959Z,1014.69
2022-08-23T12:01:27.573Z,1014.70
2022-08-23T12:02:27.644Z,1014.71
2022-08-23T12:03:27.682Z,1014.68
2022-08-23T12:04:27.571Z,1014.72
2022-08-23T12:05:27.586Z,1014.76
2022-08-23T12:06:27.571Z,1014.80
2022-08-23T12:07:27.572Z,1014.75
2022-08-23T12:08:27.572Z,1014.70
2022-08-23T12:09:27.575Z,1014.68
2022-08-23T12:10:27.575Z,1014.70
2022-08-23T12:11:27.575Z,1014.69
2022-08-23T12:12:27.578Z,1014.72
2022-08-23T12:13:27.579Z,1014.80